Time;durP1;ratioP1;P1;durP2;ratioP2;P2;SDS_P1;SDS_P2;PMS_P1;PMS_P2;Temp;Humidity;BMP_temperature;BMP_pressure;BME280_temperature;BME280_humidity;BME280_pressure;Samples;Min_cycle;Max_cycle;Signal;HPM_P1;HPM_P2
2022/10/13 00:00:50;;;;;;;12.45;7.20;;;;;;;6.30;100.00;101809.41;2079509;28;37323;-74
2022/10/13 00:01:51;;;;;;;12.35;6.75;;;;;;;6.30;100.00;101807.63;2079746;28;29198;-75
2022/10/13 00:02:53;;;;;;;15.02;7.47;;;;;;;6.31;100.00;101805.84;2078958;28;29772;-75
2022/10/13 00:03:55;;;;;;;12.07;7.35;;;;;;;6.33;100.00;101804.09;2079617;28;34889;-74
2022/10/13 00:04:57;;;;;;;13.30;7.03;;;;;;;6.35;100.00;101802.31;2080184;28;20034;-75
2022/10/13 00:05:59;;;;;;;12.13;6.95;;;;;;;6.38;100.00;101804.13;2080426;28;20716;-75
2022/10/13 00:07:00;;;;;;;15.02;7.95;;;;;;;6.40;100.00;101797.94;2079367;28;29547;-75
2022/10/13 00:08:04;;;;;;;16.05;8.68;;;;;;;6.43;100.00;101803.28;2079337;28;36478;-75
2022/10/13 00:09:13;;;;;;;13.93;8.32;;;;;;;6.44;100.00;101802.44;2079532;28;20042;-75
2022/10/13 00:10:14;;;;;;;12.35;6.88;;;;;;;6.47;100.00;101799.78;2079167;28;30120;-75
2022/10/13 00:11:23;;;;;;;16.30;7.65;;;;;;;6.50;100.00;101802.47;2078697;28;38689;-75
2022/10/13 00:12:27;;;;;;;15.88;8.60;;;;;;;6.56;100.00;101798.06;2078996;28;36519;-75
2022/10/13 00:13:29;;;;;;;19.88;8.50;;;;;;;6.61;100.00;101799.88;2079697;28;31727;-75
2022/10/13 00:14:31;;;;;;;14.43;8.30;;;;;;;6.66;100.00;101799.94;2079511;28;35708;-75
2022/10/13 00:15:39;;;;;;;15.80;8.35;;;;;;;6.65;100.00;101800.78;2080425;28;20845;-75
2022/10/13 00:16:41;;;;;;;17.08;8.18;;;;;;;6.66;100.00;101797.28;2078733;28;40022;-75
2022/10/13 00:17:43;;;;;;;12.10;7.30;;;;;;;6.67;100.00;101804.34;2079121;28;37421;-75
2022/10/13 00:18:45;;;;;;;11.82;7.70;;;;;;;6.69;100.00;101795.53;2079911;28;25962;-75
2022/10/13 00:19:47;;;;;;;15.15;7.65;;;;;;;6.71;100.00;101797.28;2079114;28;40732;-75
2022/10/13 00:20:49;;;;;;;16.45;7.78;;;;;;;6.77;100.00;101792.91;2079952;28;20917;-75
2022/10/13 00:21:51;;;;;;;16.95;7.80;;;;;;;6.79;100.00;101791.13;2078661;28;32794;-76
2022/10/13 00:22:52;;;;;;;15.02;8.07;;;;;;;6.80;100.00;101795.59;2078325;28;36647;-75
2022/10/13 00:23:54;;;;;;;18.80;8.15;;;;;;;6.84;100.00;101788.50;2079650;28;36362;-76
2022/10/13 00:24:56;;;;;;;14.95;7.85;;;;;;;6.85;100.00;101790.28;2078754;28;32664;-76
2022/10/13 00:26:00;;;;;;;17.27;8.00;;;;;;;6.86;100.00;101790.28;2079228;28;34969;-75
2022/10/13 00:27:02;;;;;;;18.77;7.97;;;;;;;6.85;100.00;101793.81;2079142;28;20050;-75
2022/10/13 00:28:09;;;;;;;16.13;7.13;;;;;;;6.86;100.00;101790.28;2075920;28;20097;-76
2022/10/13 00:29:13;;;;;;;12.70;6.95;;;;;;;6.92;100.00;101792.09;2086246;28;35964;-76
2022/10/13 00:30:14;;;;;;;14.38;7.57;;;;;;;6.91;100.00;101787.66;2079723;28;30501;-77
2022/10/13 00:31:27;;;;;;;16.00;7.53;;;;;;;6.94;100.00;101786.78;2079266;28;39030;-75
2022/10/13 00:32:29;;;;;;;17.92;7.90;;;;;;;6.96;100.00;101780.56;2079712;28;35030;-76
2022/10/13 00:33:31;;;;;;;15.25;7.32;;;;;;;6.97;100.00;101786.81;2079726;28;33207;-75
2022/10/13 00:34:33;;;;;;;18.25;8.07;;;;;;;7.00;100.00;101784.13;2081047;28;32093;-75
2022/10/13 00:35:44;;;;;;;15.25;7.80;;;;;;;7.02;100.00;101777.97;2080648;28;35460;-76
2022/10/13 00:36:50;;;;;;;13.20;8.00;;;;;;;7.04;100.00;101777.97;2081050;28;20046;-76
2022/10/13 00:37:52;;;;;;;13.45;7.63;;;;;;;7.04;100.00;101776.19;2074770;28;20946;-75
2022/10/13 00:38:55;;;;;;;10.43;6.40;;;;;;;7.06;100.00;101785.06;2080345;28;36772;-76
2022/10/13 00:39:57;;;;;;;15.85;7.68;;;;;;;7.09;100.00;101781.56;2080420;28;39474;-76
2022/10/13 00:40:59;;;;;;;15.13;7.68;;;;;;;7.12;100.00;101783.31;2081757;28;20042;-75
2022/10/13 00:42:01;;;;;;;16.98;7.80;;;;;;;7.11;100.00;101787.78;2080577;28;42142;-76
2022/10/13 00:43:02;;;;;;;14.13;8.10;;;;;;;7.12;100.00;101781.53;2081037;28;32697;-76
2022/10/13 00:44:26;;;;;;;15.05;7.95;;;;;;;7.15;100.00;101784.22;2081614;28;20899;-76
2022/10/13 00:45:31;;;;;;;14.10;7.53;;;;;;;7.16;100.00;101780.69;2080256;28;35035;-76
2022/10/13 00:46:35;;;;;;;15.63;7.50;;;;;;;7.17;100.00;101771.81;2080381;28;39529;-76
2022/10/13 00:47:45;;;;;;;9.13;6.78;;;;;;;7.18;100.00;101783.38;2079949;28;39041;-76
2022/10/13 00:48:49;;;;;;;14.68;7.45;;;;;;;7.21;100.00;101778.94;2073436;28;39693;-76
2022/10/13 00:49:53;;;;;;;12.55;7.00;;;;;;;7.21;100.00;101773.63;2081251;28;30776;-76
2022/10/13 00:50:57;;;;;;;14.10;6.88;;;;;;;7.22;100.00;101778.06;2087509;28;40142;-76
2022/10/13 00:52:01;;;;;;;14.73;8.10;;;;;;;7.23;100.00;101777.19;2079618;28;36284;-75
2022/10/13 00:53:04;;;;;;;16.17;8.80;;;;;;;7.24;100.00;101765.63;2072289;28;40200;-76
2022/10/13 00:54:09;;;;;;;16.40;7.60;;;;;;;7.25;100.00;101770.09;2080852;28;28340;-76
2022/10/13 00:55:16;;;;;;;12.63;7.40;;;;;;;7.27;100.00;101772.75;2080280;28;31318;-76
2022/10/13 00:56:20;;;;;;;15.43;7.72;;;;;;;7.26;100.00;101769.19;2081178;28;38881;-76
2022/10/13 00:57:22;;;;;;;13.45;7.18;;;;;;;7.28;100.00;101773.63;2087282;28;33892;-76
2022/10/13 00:58:30;;;;;;;22.17;8.07;;;;;;;7.28;100.00;101766.53;2087928;28;39353;-76
2022/10/13 00:59:34;;;;;;;12.88;7.60;;;;;;;7.26;100.00;101763.84;2072416;28;20035;-76
2022/10/13 01:00:36;;;;;;;12.85;7.40;;;;;;;7.23;100.00;101763.88;2074147;28;20046;-77
2022/10/13 01:01:38;;;;;;;14.50;7.53;;;;;;;7.22;100.00;101767.41;2080069;28;35210;-76
2022/10/13 01:02:40;;;;;;;14.10;7.72;;;;;;;7.22;100.00;101769.19;2071959;28;37740;-76
2022/10/13 01:03:41;;;;;;;15.85;7.40;;;;;;;7.20;100.00;101760.28;2080301;28;31851;-76
2022/10/13 01:04:46;;;;;;;13.85;7.85;;;;;;;7.18;100.00;101762.94;2080698;28;32876;-76
2022/10/13 01:05:50;;;;;;;17.70;8.02;;;;;;;7.19;100.00;101769.16;2080195;28;23720;-76
2022/10/13 01:06:53;;;;;;;17.00;8.77;;;;;;;7.19;100.00;101763.84;2072260;28;35102;-76
2022/10/13 01:07:57;;;;;;;14.35;7.60;;;;;;;7.18;100.00;101767.41;2080791;28;38798;-76
2022/10/13 01:08:58;;;;;;;12.95;7.05;;;;;;;7.17;100.00;101765.59;2088320;28;20046;-76
2022/10/13 01:10:01;;;;;;;17.70;8.35;;;;;;;7.17;100.00;101758.50;2080891;28;33647;-76
2022/10/13 01:11:15;;;;;;;14.80;8.05;;;;;;;7.16;100.00;101761.16;2080225;28;36102;-76
2022/10/13 01:12:48;;;;;;;14.20;7.85;;;;;;;7.15;100.00;101760.25;2080941;28;32355;-76
2022/10/13 01:14:20;;;;;;;14.15;7.30;;;;;;;7.14;100.00;101755.84;2080923;28;34695;-76
2022/10/13 01:15:47;;;;;;;16.52;8.45;;;;;;;7.13;100.00;101762.03;2080705;28;32548;-77
2022/10/13 01:16:59;;;;;;;11.48;7.13;;;;;;;7.10;100.00;101767.34;2080765;28;40582;-76
2022/10/13 01:18:32;;;;;;;15.45;7.85;;;;;;;7.09;100.00;101757.59;2081059;28;32513;-76
2022/10/13 01:20:06;;;;;;;15.80;7.47;;;;;;;7.05;100.00;101758.44;2079524;28;40850;-76
2022/10/13 01:21:42;;;;;;;17.17;7.90;;;;;;;7.00;100.00;101763.75;2079436;28;40601;-76
2022/10/13 01:23:32;;;;;;;16.85;7.75;;;;;;;6.96;100.00;101758.38;2080416;28;35031;-76
2022/10/13 01:24:50;;;;;;;15.43;7.05;;;;;;;6.91;100.00;101761.06;2080990;28;39397;-76
2022/10/13 01:26:25;;;;;;;12.70;7.18;;;;;;;6.90;100.00;101753.94;2079703;28;37344;-76
2022/10/13 01:27:46;;;;;;;13.45;7.60;;;;;;;6.88;100.00;101751.25;2080271;28;37889;-76
2022/10/13 01:29:32;;;;;;;17.52;7.70;;;;;;;6.87;100.00;101751.25;2080539;28;34465;-75
2022/10/13 01:30:47;;;;;;;16.95;8.63;;;;;;;6.86;100.00;101754.81;2080483;28;39551;-76
2022/10/13 01:32:10;;;;;;;19.83;8.25;;;;;;;6.85;100.00;101751.22;2079902;28;33711;-76
2022/10/13 01:33:28;;;;;;;19.95;8.07;;;;;;;6.86;100.00;101749.47;2075883;28;34077;-75
2022/10/13 01:35:05;;;;;;;14.80;8.98;;;;;;;6.88;100.00;101750.38;2084150;28;41982;-76
2022/10/13 01:36:25;;;;;;;18.88;8.77;;;;;;;6.85;100.00;101743.25;2060681;28;27319;-76
2022/10/13 01:37:55;;;;;;;13.30;8.27;;;;;;;6.84;100.00;101745.94;2079372;28;40092;-76
2022/10/13 01:39:22;;;;;;;18.02;8.95;;;;;;;6.87;100.00;101741.50;2080825;28;20046;-76
2022/10/13 01:40:59;;;;;;;22.77;10.07;;;;;;;6.88;100.00;101745.94;2080511;28;38437;-77
2022/10/13 01:42:17;;;;;;;16.63;8.73;;;;;;;6.88;100.00;101743.25;2080289;28;41241;-76
2022/10/13 01:43:55;;;;;;;16.05;8.80;;;;;;;6.87;100.00;101744.16;2079994;28;30620;-76
2022/10/13 01:45:00;;;;;;;18.60;9.43;;;;;;;6.85;100.00;101737.91;2080201;28;36903;-76
2022/10/13 01:46:14;;;;;;;17.38;10.13;;;;;;;6.85;100.00;101743.25;2071430;28;35454;-76
2022/10/13 01:47:20;;;;;;;14.82;9.05;;;;;;;6.86;100.00;101736.16;2075255;28;20042;-76
2022/10/13 01:48:26;;;;;;;14.38;8.43;;;;;;;6.84;100.00;101736.16;2080967;28;20041;-76
2022/10/13 01:49:35;;;;;;;19.15;8.93;;;;;;;6.86;100.00;101734.38;2080121;28;40406;-76
2022/10/13 01:50:37;;;;;;;15.20;8.88;;;;;;;6.87;100.00;101736.19;2081289;28;20057;-76
2022/10/13 01:51:40;;;;;;;20.13;9.90;;;;;;;6.87;100.00;101733.53;2079671;28;34969;-76
2022/10/13 01:52:42;;;;;;;17.75;9.57;;;;;;;6.88;100.00;101732.63;2079504;28;30144;-76
2022/10/13 01:53:46;;;;;;;17.23;9.65;;;;;;;6.90;100.00;101735.28;2080266;28;37723;-76
2022/10/13 01:54:52;;;;;;;16.77;8.85;;;;;;;6.92;100.00;101735.31;2079319;28;38474;-76
2022/10/13 01:55:59;;;;;;;17.25;8.85;;;;;;;6.92;100.00;101733.53;2073188;28;32265;-76
2022/10/13 01:57:01;;;;;;;13.63;8.88;;;;;;;6.92;100.00;101730.88;2081164;28;20831;-76
2022/10/13 01:58:02;;;;;;;13.80;8.40;;;;;;;6.95;100.00;101727.34;2080560;28;34246;-76
2022/10/13 01:59:13;;;;;;;23.55;9.60;;;;;;;6.96;100.00;101729.09;2080702;28;20156;-77
2022/10/13 02:00:19;;;;;;;22.17;10.82;;;;;;;6.95;100.00;101722.91;2080945;28;32747;-76
2022/10/13 02:02:07;;;;;;;17.88;8.57;;;;;;;6.96;100.00;101721.13;2088497;28;39747;-76
2022/10/13 02:03:25;;;;;;;19.42;9.80;;;;;;;6.98;100.00;101728.25;2083259;28;29194;-76
2022/10/13 02:04:52;;;;;;;19.67;9.70;;;;;;;6.98;100.00;101724.69;2080559;28;31883;-77
2022/10/13 02:06:13;;;;;;;22.05;9.93;;;;;;;7.01;100.00;101722.03;2080399;28;32198;-76
2022/10/13 02:07:31;;;;;;;15.50;9.45;;;;;;;7.02;100.00;101724.72;2080502;28;20898;-76
2022/10/13 02:08:51;;;;;;;16.55;8.52;;;;;;;7.02;100.00;101724.72;2080003;28;30053;-76
2022/10/13 02:10:04;;;;;;;19.45;9.60;;;;;;;7.04;100.00;101722.06;2078967;28;39715;-77
2022/10/13 02:11:15;;;;;;;18.83;9.27;;;;;;;7.05;100.00;101723.81;2080174;28;34820;-76
2022/10/13 02:12:51;;;;;;;19.15;9.63;;;;;;;7.06;100.00;101715.84;2080327;28;24361;-76
2022/10/13 02:14:07;;;;;;;19.33;9.38;;;;;;;7.07;100.00;101714.97;2079800;28;37350;-76
2022/10/13 02:15:15;;;;;;;18.08;9.50;;;;;;;7.09;100.00;101714.97;2080061;28;34647;-76
2022/10/13 02:16:19;;;;;;;16.67;9.07;;;;;;;7.09;100.00;101714.97;2074108;28;31312;-76
2022/10/13 02:17:26;;;;;;;18.50;10.38;;;;;;;7.13;100.00;101713.22;2081193;28;34119;-76
2022/10/13 02:18:33;;;;;;;17.65;8.77;;;;;;;7.12;100.00;101706.97;2086885;28;33373;-76
2022/10/13 02:19:38;;;;;;;20.83;10.20;;;;;;;7.15;100.00;101712.31;2079874;28;20922;-76
2022/10/13 02:20:41;;;;;;;18.42;9.82;;;;;;;7.18;100.00;101701.69;2072714;28;30728;-76
2022/10/13 02:21:44;;;;;;;18.73;9.35;;;;;;;7.19;100.00;101699.91;2079807;28;38748;-76
2022/10/13 02:22:54;;;;;;;17.92;9.55;;;;;;;7.20;100.00;101697.25;2079388;28;28126;-76
2022/10/13 02:23:56;;;;;;;26.50;10.63;;;;;;;7.23;100.00;101704.34;2081223;28;37556;-76
2022/10/13 02:24:58;;;;;;;21.42;10.13;;;;;;;7.22;100.00;101695.47;2086508;28;35891;-75
2022/10/13 02:26:04;;;;;;;17.80;9.48;;;;;;;7.24;100.00;101699.03;2088453;28;20073;-76
2022/10/13 02:27:07;;;;;;;21.35;9.77;;;;;;;7.25;100.00;101698.16;2079690;28;34359;-76
2022/10/13 02:28:09;;;;;;;21.08;9.07;;;;;;;7.24;100.00;101693.72;2079853;28;20057;-76
2022/10/13 02:29:17;;;;;;;18.52;10.15;;;;;;;7.25;100.00;101692.84;2080912;28;20128;-76
2022/10/13 02:30:24;;;;;;;23.00;10.43;;;;;;;7.28;100.00;101701.72;2080072;28;37005;-76
2022/10/13 02:31:26;;;;;;;22.17;9.85;;;;;;;7.26;100.00;101699.94;2080644;28;29834;-76
2022/10/13 02:32:28;;;;;;;23.52;10.82;;;;;;;7.27;100.00;101692.84;2080082;28;37742;-76
2022/10/13 02:33:29;;;;;;;17.25;9.85;;;;;;;7.27;100.00;101692.84;2080214;28;30964;-76
2022/10/13 02:34:31;;;;;;;21.02;9.57;;;;;;;7.29;100.00;101706.19;2080094;28;36095;-76
2022/10/13 02:35:33;;;;;;;19.30;10.68;;;;;;;7.28;100.00;101694.59;2079646;28;40353;-76
2022/10/13 02:36:39;;;;;;;18.80;9.75;;;;;;;7.30;100.00;101691.94;2080554;28;20050;-76
2022/10/13 02:37:40;;;;;;;19.63;10.77;;;;;;;7.31;100.00;101691.09;2079717;28;38465;-76
2022/10/13 02:38:43;;;;;;;25.02;10.88;;;;;;;7.32;100.00;101691.09;2087999;28;20931;-76
2022/10/13 02:39:45;;;;;;;17.77;10.30;;;;;;;7.31;100.00;101688.41;2087720;28;34464;-76
2022/10/13 02:40:47;;;;;;;18.35;10.70;;;;;;;7.30;100.00;101682.19;2080388;28;20082;-76
2022/10/13 02:41:49;;;;;;;23.50;11.05;;;;;;;7.33;100.00;101698.19;2079973;28;37657;-77
2022/10/13 02:42:53;;;;;;;21.55;11.32;;;;;;;7.32;100.00;101696.41;2080401;28;30316;-76
2022/10/13 02:43:55;;;;;;;21.35;11.55;;;;;;;7.33;100.00;101687.53;2087555;28;38905;-76
2022/10/13 02:45:08;;;;;;;15.52;9.70;;;;;;;7.31;100.00;101685.75;2086703;28;20167;-74
2022/10/13 02:46:09;;;;;;;15.43;9.48;;;;;;;7.32;100.00;101690.19;2080013;28;33274;-77
2022/10/13 02:47:12;;;;;;;20.98;11.25;;;;;;;7.33;100.00;101694.63;2080463;28;27071;-76
2022/10/13 02:48:13;;;;;;;18.10;10.90;;;;;;;7.33;100.00;101687.53;2080290;28;29724;-76
2022/10/13 02:49:15;;;;;;;21.42;11.32;;;;;;;7.32;100.00;101691.09;2079867;28;39705;-76
2022/10/13 02:50:17;;;;;;;19.80;10.13;;;;;;;7.31;100.00;101691.97;2087652;28;37769;-76
2022/10/13 02:51:19;;;;;;;20.38;10.65;;;;;;;7.30;100.00;101682.19;2087205;28;40449;-76
2022/10/13 02:52:20;;;;;;;23.92;10.43;;;;;;;7.35;100.00;101690.19;2087556;28;31777;-76
2022/10/13 02:53:22;;;;;;;19.40;10.55;;;;;;;7.38;100.00;101688.44;2087515;28;35694;-76
2022/10/13 02:54:24;;;;;;;18.48;10.80;;;;;;;7.41;100.00;101698.19;2080170;28;31080;-77
2022/10/13 02:55:28;;;;;;;21.10;11.63;;;;;;;7.42;100.00;101686.66;2080137;28;35042;-77
2022/10/13 02:56:30;;;;;;;23.10;10.98;;;;;;;7.45;100.00;101692.88;2079403;28;30674;-77
2022/10/13 02:57:32;;;;;;;18.17;10.77;;;;;;;7.49;100.00;101692.91;2080028;28;34503;-77
2022/10/13 02:58:34;;;;;;;22.02;10.90;;;;;;;7.47;100.00;101700.88;2088071;28;20087;-76
2022/10/13 02:59:36;;;;;;;23.90;11.57;;;;;;;7.52;100.00;101688.47;2087346;28;34577;-76
2022/10/13 03:00:38;;;;;;;23.17;12.05;;;;;;;7.54;100.00;101691.13;2079830;28;35375;-77
2022/10/13 03:01:41;;;;;;;21.17;11.45;;;;;;;7.51;100.00;101689.34;2087980;28;20064;-76
2022/10/13 03:02:42;;;;;;;20.27;10.90;;;;;;;7.53;100.00;101690.22;2087000;28;40719;-76
2022/10/13 03:03:44;;;;;;;20.80;11.88;;;;;;;7.56;100.00;101690.25;2087865;28;29981;-77
2022/10/13 03:04:48;;;;;;;17.90;10.63;;;;;;;7.53;100.00;101690.22;2087526;28;30134;-76
2022/10/13 03:05:49;;;;;;;20.88;10.77;;;;;;;7.53;100.00;101690.22;2080110;28;32065;-77
2022/10/13 03:06:51;;;;;;;17.83;10.65;;;;;;;7.52;100.00;101685.78;2081146;28;20033;-77
2022/10/13 03:07:53;;;;;;;23.75;11.05;;;;;;;7.52;100.00;101685.78;2079242;28;38105;-77
2022/10/13 03:08:54;;;;;;;17.25;9.82;;;;;;;7.51;100.00;101681.34;2087622;28;36234;-77
2022/10/13 03:09:58;;;;;;;20.83;11.10;;;;;;;7.51;100.00;101681.34;2087297;28;20089;-77
2022/10/13 03:11:01;;;;;;;16.50;10.20;;;;;;;7.50;100.00;101682.25;2080036;28;38002;-76
2022/10/13 03:12:03;;;;;;;19.02;10.38;;;;;;;7.50;100.00;101684.00;2080320;28;20038;-77
2022/10/13 03:13:04;;;;;;;21.42;10.50;;;;;;;7.48;100.00;101684.00;2087083;28;35771;-77
2022/10/13 03:14:06;;;;;;;19.15;10.27;;;;;;;7.47;100.00;101679.56;2087570;28;26322;-76
2022/10/13 03:15:08;;;;;;;20.90;10.68;;;;;;;7.48;100.00;101680.44;2079647;28;20041;-77
2022/10/13 03:16:10;;;;;;;19.80;10.68;;;;;;;7.49;100.00;101682.25;2079777;28;31342;-76
2022/10/13 03:17:11;;;;;;;17.73;10.93;;;;;;;7.48;100.00;101676.00;2080042;28;34358;-77
2022/10/13 03:18:14;;;;;;;22.33;11.98;;;;;;;7.47;100.00;101674.25;2087153;28;31999;-77
2022/10/13 03:19:16;;;;;;;22.27;11.10;;;;;;;7.47;100.00;101679.56;2087077;28;38444;-77
2022/10/13 03:20:17;;;;;;;23.23;12.68;;;;;;;7.46;100.00;101677.78;2079764;28;32517;-76
2022/10/13 03:21:19;;;;;;;24.23;12.32;;;;;;;7.49;100.00;101674.25;2079226;28;39281;-76
2022/10/13 03:22:21;;;;;;;20.52;11.80;;;;;;;7.47;100.00;101673.34;2079925;28;30101;-76
2022/10/13 03:23:26;;;;;;;18.52;10.75;;;;;;;7.44;100.00;101675.09;2080484;28;20987;-76
2022/10/13 03:24:28;;;;;;;23.48;12.38;;;;;;;7.44;100.00;101672.44;2079470;28;40624;-77
2022/10/13 03:25:29;;;;;;;21.25;11.73;;;;;;;7.45;100.00;101676.03;2079555;28;31408;-76
2022/10/13 03:26:34;;;;;;;18.27;10.88;;;;;;;7.43;100.00;101675.13;2087417;28;34031;-76
2022/10/13 03:27:38;;;;;;;22.48;11.93;;;;;;;7.44;100.00;101676.88;2086934;28;33750;-76
2022/10/13 03:28:42;;;;;;;18.65;10.95;;;;;;;7.44;100.00;101666.22;2087767;28;36402;-77
2022/10/13 03:29:44;;;;;;;24.90;13.15;;;;;;;7.44;100.00;101668.91;2086349;28;38223;-76
2022/10/13 03:30:46;;;;;;;21.75;10.98;;;;;;;7.41;100.00;101675.13;2087440;28;35599;-76
2022/10/13 03:31:47;;;;;;;22.40;11.50;;;;;;;7.42;100.00;101665.34;2079865;28;20895;-76
2022/10/13 03:32:49;;;;;;;25.17;12.02;;;;;;;7.42;100.00;101668.88;2079090;28;41380;-77
2022/10/13 03:33:51;;;;;;;17.85;11.00;;;;;;;7.42;100.00;101668.00;2079081;28;38246;-76
2022/10/13 03:34:52;;;;;;;20.55;11.10;;;;;;;7.43;100.00;101673.34;2078631;28;37445;-76
2022/10/13 03:36:00;;;;;;;24.05;12.88;;;;;;;7.45;100.00;101670.69;2087235;28;36837;-75
2022/10/13 03:37:02;;;;;;;19.02;11.13;;;;;;;7.47;100.00;101668.91;2086809;28;30879;-76
2022/10/13 03:38:08;;;;;;;22.75;12.25;;;;;;;7.47;100.00;101668.91;2080170;28;20042;-77
2022/10/13 03:39:12;;;;;;;17.83;11.32;;;;;;;7.46;100.00;101675.09;2087678;28;20817;-77
2022/10/13 03:40:14;;;;;;;18.63;11.30;;;;;;;7.45;100.00;101671.56;2087252;28;29921;-76
2022/10/13 03:41:17;;;;;;;20.48;12.02;;;;;;;7.48;100.00;101667.13;2079843;28;33795;-77
2022/10/13 03:42:23;;;;;;;24.27;12.35;;;;;;;7.49;100.00;101669.78;2087916;28;20858;-77
2022/10/13 03:43:25;;;;;;;20.85;11.18;;;;;;;7.49;100.00;101671.59;2086727;28;33625;-77
2022/10/13 03:44:26;;;;;;;20.75;11.50;;;;;;;7.50;100.00;101671.59;2079632;28;37715;-76
2022/10/13 03:45:30;;;;;;;22.98;12.40;;;;;;;7.49;100.00;101669.78;2080353;28;20034;-77
2022/10/13 03:46:34;;;;;;;24.85;12.88;;;;;;;7.51;100.00;101670.69;2079574;28;39730;-77
2022/10/13 03:47:36;;;;;;;23.23;12.25;;;;;;;7.54;100.00;101667.16;2087196;28;30645;-77
2022/10/13 03:48:38;;;;;;;21.63;11.88;;;;;;;7.53;100.00;101668.03;2079065;28;30370;-77
2022/10/13 03:49:40;;;;;;;19.60;11.70;;;;;;;7.53;100.00;101668.03;2078857;28;36861;-76
2022/10/13 03:50:42;;;;;;;22.30;12.98;;;;;;;7.55;100.00;101672.47;2080491;28;20042;-76
2022/10/13 03:51:44;;;;;;;19.20;11.90;;;;;;;7.54;100.00;101654.72;2087453;28;37659;-76
2022/10/13 03:52:49;;;;;;;17.80;10.93;;;;;;;7.55;100.00;101653.81;2087093;28;30836;-76
2022/10/13 03:53:51;;;;;;;18.50;10.45;;;;;;;7.56;100.00;101647.59;2087021;28;39243;-76
2022/10/13 03:54:53;;;;;;;22.40;12.95;;;;;;;7.60;100.00;101654.69;2078836;28;38619;-77
2022/10/13 03:55:55;;;;;;;23.15;12.65;;;;;;;7.59;100.00;101652.94;2079862;28;20136;-76
2022/10/13 03:56:57;;;;;;;23.50;12.23;;;;;;;7.60;100.00;101653.81;2079537;28;39667;-76
2022/10/13 03:57:59;;;;;;;24.48;13.50;;;;;;;7.62;100.00;101652.91;2079480;28;34872;-76
2022/10/13 03:59:03;;;;;;;21.55;12.40;;;;;;;7.62;100.00;101647.59;2079816;28;33227;-77
2022/10/13 04:00:09;;;;;;;19.33;12.05;;;;;;;7.62;100.00;101644.94;2087312;28;31124;-76
2022/10/13 04:01:13;;;;;;;20.58;12.68;;;;;;;7.61;100.00;101643.16;2086474;28;20052;-77
2022/10/13 04:02:16;;;;;;;21.05;12.18;;;;;;;7.62;100.00;101652.91;2080254;28;20153;-77
2022/10/13 04:03:18;;;;;;;20.25;12.57;;;;;;;7.64;100.00;101640.50;2079329;28;30687;-77
2022/10/13 04:04:19;;;;;;;20.65;12.73;;;;;;;7.64;100.00;101643.19;2078753;28;35323;-76
2022/10/13 04:05:25;;;;;;;18.40;11.93;;;;;;;7.65;100.00;101647.59;2079548;28;20142;-77
2022/10/13 04:06:27;;;;;;;19.02;12.88;;;;;;;7.65;100.00;101639.59;2086629;28;31672;-76
2022/10/13 04:07:32;;;;;;;24.08;12.50;;;;;;;7.64;100.00;101635.19;2078814;28;22083;-76
2022/10/13 04:08:40;;;;;;;20.27;12.07;;;;;;;7.64;100.00;101634.28;2080324;28;20038;-77
2022/10/13 04:09:42;;;;;;;21.60;13.00;;;;;;;7.62;100.00;101631.59;2085823;28;30929;-76
2022/10/13 04:10:44;;;;;;;25.65;12.35;;;;;;;7.64;100.00;101635.19;2079451;28;27154;-77
2022/10/13 04:11:50;;;;;;;23.10;12.95;;;;;;;7.64;100.00;101629.84;2079708;28;30882;-76
2022/10/13 04:12:52;;;;;;;22.38;12.48;;;;;;;7.63;100.00;101632.50;2087868;28;20838;-77
2022/10/13 04:13:57;;;;;;;19.85;12.00;;;;;;;7.61;100.00;101628.97;2086675;28;38394;-76
2022/10/13 04:15:01;;;;;;;22.58;12.75;;;;;;;7.62;100.00;101620.06;2086957;28;34617;-77
2022/10/13 04:16:24;;;;;;;27.13;13.05;;;;;;;7.62;100.00;101620.06;2086997;28;20041;-77
2022/10/13 04:17:26;;;;;;;19.48;12.10;;;;;;;7.60;100.00;101622.72;2080650;28;20085;-76
2022/10/13 04:18:29;;;;;;;21.48;12.30;;;;;;;7.59;100.00;101623.63;2079969;28;20038;-77
2022/10/13 04:19:30;;;;;;;20.27;11.88;;;;;;;7.59;100.00;101620.97;2079896;28;32151;-77
2022/10/13 04:20:38;;;;;;;24.55;13.60;;;;;;;7.59;100.00;101623.63;2080090;28;20073;-77
2022/10/13 04:21:41;;;;;;;26.13;13.85;;;;;;;7.61;100.00;101624.50;2078995;28;31008;-77
2022/10/13 04:22:43;;;;;;;25.20;13.82;;;;;;;7.63;100.00;101616.53;2086870;28;32612;-77
2022/10/13 04:23:45;;;;;;;22.30;13.50;;;;;;;7.63;100.00;101617.41;2079042;28;36820;-77
2022/10/13 04:24:50;;;;;;;22.88;11.85;;;;;;;7.62;100.00;101620.06;2079553;28;20917;-77
2022/10/13 04:25:51;;;;;;;20.20;11.70;;;;;;;7.62;100.00;101620.94;2079473;28;37332;-77
2022/10/13 04:26:53;;;;;;;24.00;12.82;;;;;;;7.63;100.00;101622.72;2079519;28;30140;-77
2022/10/13 04:27:55;;;;;;;26.27;12.68;;;;;;;7.65;100.00;101626.28;2078949;28;34560;-76
2022/10/13 04:28:57;;;;;;;20.35;12.35;;;;;;;7.64;100.00;101629.84;2079177;28;31286;-76
2022/10/13 04:29:58;;;;;;;20.55;12.18;;;;;;;7.65;100.00;101626.28;2079339;28;34751;-77
2022/10/13 04:31:02;;;;;;;26.75;13.80;;;;;;;7.66;100.00;101629.81;2079498;28;33349;-77
2022/10/13 04:32:04;;;;;;;19.77;11.48;;;;;;;7.64;100.00;101621.84;2079830;28;20029;-77
2022/10/13 04:33:06;;;;;;;22.02;13.30;;;;;;;7.64;100.00;101627.19;2079105;28;24346;-78
2022/10/13 04:34:12;;;;;;;23.08;12.93;;;;;;;7.67;100.00;101628.06;2078534;28;39888;-77
2022/10/13 04:35:13;;;;;;;24.15;12.82;;;;;;;7.67;100.00;101617.41;2079637;28;30936;-77
2022/10/13 04:36:16;;;;;;;28.73;14.45;;;;;;;7.65;100.00;101620.06;2080428;28;31106;-77
2022/10/13 04:37:23;;;;;;;28.88;13.60;;;;;;;7.67;100.00;101630.72;2079517;28;20918;-77
2022/10/13 04:38:24;;;;;;;29.35;14.20;;;;;;;7.68;100.00;101622.75;2079586;28;30318;-77
2022/10/13 04:39:26;;;;;;;23.92;13.15;;;;;;;7.67;100.00;101628.94;2086994;28;33961;-77
2022/10/13 04:40:29;;;;;;;25.90;14.05;;;;;;;7.71;100.00;101621.84;2087742;28;20799;-76
2022/10/13 04:41:33;;;;;;;25.17;14.75;;;;;;;7.76;100.00;101628.06;2078624;28;36516;-77
2022/10/13 04:42:35;;;;;;;24.95;14.10;;;;;;;7.74;100.00;101628.06;2079312;28;34781;-77
2022/10/13 04:43:36;;;;;;;26.17;14.70;;;;;;;7.77;100.00;101624.50;2079199;28;34436;-77
2022/10/13 04:44:38;;;;;;;29.20;14.85;;;;;;;7.77;100.00;101620.06;2079413;28;34288;-77
2022/10/13 04:45:40;;;;;;;28.25;14.98;;;;;;;7.75;100.00;101615.63;2079771;28;20057;-77
2022/10/13 04:46:42;;;;;;;24.83;14.35;;;;;;;7.75;100.00;101621.84;2080202;28;20860;-77
2022/10/13 04:47:44;;;;;;;27.08;14.73;;;;;;;7.76;100.00;101617.41;2079032;28;38088;-77
2022/10/13 04:48:46;;;;;;;25.42;14.55;;;;;;;7.76;100.00;101614.75;2087181;28;37933;-77
2022/10/13 04:49:47;;;;;;;26.92;14.65;;;;;;;7.75;100.00;101613.84;2086586;28;35331;-77
2022/10/13 04:51:01;;;;;;;24.40;13.63;;;;;;;7.77;100.00;101611.16;2079141;28;40193;-77
2022/10/13 04:52:02;;;;;;;25.77;15.35;;;;;;;7.78;100.00;101612.97;2087321;28;20038;-78
2022/10/13 04:53:04;;;;;;;25.17;14.63;;;;;;;7.79;100.00;101612.09;2078566;28;33420;-77
2022/10/13 04:54:06;;;;;;;25.67;14.48;;;;;;;7.78;100.00;101610.28;2079011;28;31117;-77
2022/10/13 04:55:09;;;;;;;27.02;13.95;;;;;;;7.77;100.00;101611.16;2086985;28;31149;-77
2022/10/13 04:56:14;;;;;;;23.05;13.55;;;;;;;7.77;100.00;101603.16;2079288;28;36238;-77
2022/10/13 04:57:16;;;;;;;29.25;16.35;;;;;;;7.80;100.00;101597.84;2087759;28;20046;-77
2022/10/13 04:58:18;;;;;;;26.98;14.35;;;;;;;7.80;100.00;101608.50;2086423;28;37593;-77
2022/10/13 04:59:20;;;;;;;25.55;14.95;;;;;;;7.81;100.00;101608.50;2079833;28;36535;-77
2022/10/13 05:00:21;;;;;;;25.77;15.20;;;;;;;7.80;100.00;101597.84;2087581;28;20085;-77
2022/10/13 05:01:26;;;;;;;25.80;14.65;;;;;;;7.80;100.00;101597.84;2086652;28;35434;-77
2022/10/13 05:02:28;;;;;;;21.77;14.20;;;;;;;7.80;100.00;101603.16;2086491;28;40396;-78